Time;durP1;ratioP1;P1;durP2;ratioP2;P2;SDS_P1;SDS_P2;PMS_P1;PMS_P2;Temp;Humidity;BMP_temperature;BMP_pressure;BME280_temperature;BME280_humidity;BME280_pressure;Samples;Min_cycle;Max_cycle;Signal;HPM_P1;HPM_P2
2022/02/10 00:16:15;;;;;;;16.17;8.15;;;4.80;92.40;;;;;;5032148;28;20033;-72
2022/02/10 00:21:21;;;;;;;23.83;7.82;;;5.00;92.40;;;;;;5032263;28;20045;-72
2022/02/10 00:34:31;;;;;;;13.32;7.10;;;4.90;92.30;;;;;;5032379;28;20040;-72
2022/02/10 00:37:11;;;;;;;16.85;8.43;;;4.70;92.70;;;;;;5030873;28;20091;-72
2022/02/10 00:42:09;;;;;;;14.98;7.13;;;4.30;93.10;;;;;;5032114;28;20049;-72
2022/02/10 00:44:35;;;;;;;14.15;8.23;;;4.30;93.00;;;;;;5032596;28;20388;-71
2022/02/10 00:47:01;;;;;;;16.90;8.75;;;4.60;92.70;;;;;;5027348;28;20464;-72
2022/02/10 00:49:27;;;;;;;14.77;7.72;;;5.00;92.30;;;;;;5031366;28;20044;-72
2022/02/10 00:51:53;;;;;;;14.82;7.13;;;5.00;92.00;;;;;;5027692;28;20449;-72
2022/02/10 00:54:23;;;;;;;14.55;7.57;;;4.80;92.10;;;;;;5031085;28;20048;-72
2022/02/10 00:56:49;;;;;;;12.27;7.45;;;4.70;92.40;;;;;;5029893;28;20042;-71
2022/02/10 01:12:48;;;;;;;12.00;7.13;;;4.20;93.00;;;;;;5030616;28;20048;-72
2022/02/10 01:31:40;;;;;;;15.10;8.30;;;4.00;93.00;;;;;;5032596;28;20083;-72
2022/02/10 01:34:07;;;;;;;13.30;6.57;;;3.90;93.20;;;;;;5029598;28;20041;-72
2022/02/10 01:36:32;;;;;;;15.38;6.78;;;4.00;93.10;;;;;;5031793;28;20083;-72
2022/02/10 01:38:59;;;;;;;13.15;6.93;;;4.00;92.90;;;;;;5030014;28;20037;-72
2022/02/10 01:58:05;;;;;;;18.90;6.28;;;4.00;92.40;;;;;;5030925;28;20096;-72
2022/02/10 02:03:26;;;;;;;10.90;5.88;;;4.00;92.60;;;;;;5029966;28;20048;-72
2022/02/10 02:06:01;;;;;;;10.43;5.78;;;4.00;92.50;;;;;;5027151;28;20025;-72
2022/02/10 02:08:29;;;;;;;9.95;5.88;;;3.80;92.40;;;;;;5030676;28;20029;-72
2022/02/10 02:10:55;;;;;;;13.20;5.63;;;3.90;92.40;;;;;;5030518;28;20037;-72
2022/02/10 02:13:21;;;;;;;14.70;6.45;;;3.90;92.40;;;;;;5031678;28;20531;-72
2022/02/10 02:15:47;;;;;;;10.27;5.80;;;3.90;92.30;;;;;;5022348;28;20087;-72
2022/02/10 02:18:13;;;;;;;14.82;5.47;;;3.80;92.40;;;;;;5030985;28;20029;-71
2022/02/10 02:20:39;;;;;;;10.75;5.55;;;3.90;92.30;;;;;;5030229;28;20032;-72
2022/02/10 02:23:05;;;;;;;15.43;6.00;;;3.90;92.20;;;;;;5031123;28;20034;-72
2022/02/10 02:25:30;;;;;;;10.70;5.80;;;3.90;92.20;;;;;;5025166;28;20099;-72
2022/02/10 02:27:58;;;;;;;13.02;5.88;;;4.00;92.20;;;;;;5030718;28;20037;-72
2022/02/10 02:30:29;;;;;;;10.48;5.90;;;4.10;92.00;;;;;;5029863;28;20472;-72
2022/02/10 03:05:33;;;;;;;10.75;4.07;;;3.40;92.00;;;;;;5029566;28;20526;-72
2022/02/10 03:08:01;;;;;;;8.35;5.03;;;3.50;91.80;;;;;;5033766;28;20029;-72
2022/02/10 03:13:06;;;;;;;9.48;4.15;;;3.80;91.40;;;;;;5033513;28;20045;-72
2022/02/10 03:15:41;;;;;;;9.20;4.18;;;3.70;91.40;;;;;;5029516;28;20052;-72
2022/02/10 04:07:33;;;;;;;12.57;5.32;;;3.00;92.20;;;;;;5024628;28;20606;-71
2022/02/10 04:10:45;;;;;;;9.70;4.65;;;2.90;92.30;;;;;;5025878;28;20037;-71
2022/02/10 05:00:39;;;;;;;8.63;3.45;;;3.10;91.50;;;;;;5024700;28;20026;-70
2022/02/10 05:24:24;;;;;;;7.03;3.83;;;2.60;92.40;;;;;;5024403;28;20613;-71
2022/02/10 05:37:53;;;;;;;7.50;3.63;;;2.40;92.40;;;;;;5009046;28;20116;-71
2022/02/10 05:40:53;;;;;;;9.10;3.78;;;2.40;92.40;;;;;;5018970;28;20025;-71
2022/02/10 05:56:17;;;;;;;6.72;3.35;;;2.30;92.70;;;;;;5023939;28;20037;-71
2022/02/10 06:50:27;;;;;;;8.20;4.80;;;2.20;93.10;;;;;;5027276;28;20060;-71
2022/02/10 07:14:21;;;;;;;12.18;4.07;;;2.40;92.70;;;;;;5023563;28;20045;-70
2022/02/10 07:47:16;;;;;;;5.85;3.65;;;2.30;93.40;;;;;;5026978;28;20522;-71
2022/02/10 08:00:30;;;;;;;8.70;4.45;;;2.60;93.00;;;;;;5026470;28;20038;-70
2022/02/10 08:55:13;;;;;;;7.28;2.60;;;2.50;93.40;;;;;;5025229;28;20148;-73
2022/02/10 09:27:38;;;;;;;9.48;3.25;;;3.30;91.20;;;;;;5026427;28;20059;-71
2022/02/10 10:02:16;;;;;;;7.30;4.15;;;4.10;91.30;;;;;;4984346;28;20053;-71
2022/02/10 10:04:58;;;;;;;7.47;4.20;;;4.10;91.40;;;;;;4984961;28;20042;-71
2022/02/10 10:16:29;;;;;;;13.00;4.60;;;4.50;90.90;;;;;;5028304;28;20119;-71
2022/02/10 10:19:06;;;;;;;14.23;3.75;;;4.50;91.00;;;;;;5025942;28;20041;-72
2022/02/10 10:21:45;;;;;;;7.40;3.65;;;4.60;90.40;;;;;;5030597;28;20116;-71
2022/02/10 10:56:58;;;;;;;12.68;4.70;;;5.50;87.50;;;;;;5028783;28;20152;-72
2022/02/10 14:16:56;;;;;;;14.55;7.57;;;10.80;83.50;;;;;;5023109;28;20033;-73
2022/02/10 14:27:43;;;;;;;17.05;8.27;;;10.70;83.90;;;;;;5014005;28;20044;-72
2022/02/10 14:30:09;;;;;;;15.52;7.05;;;10.70;83.30;;;;;;5021360;28;20032;-72
2022/02/10 14:32:40;;;;;;;13.82;7.30;;;10.80;83.60;;;;;;5023312;28;20060;-71
2022/02/10 14:35:14;;;;;;;11.77;7.18;;;10.80;84.00;;;;;;5024043;28;20552;-73
2022/02/10 14:43:25;;;;;;;22.48;7.90;;;10.90;85.20;;;;;;5019853;28;20041;-72
2022/02/10 15:31:11;;;;;;;18.10;10.02;;;10.60;89.70;;;;;;5026680;28;20407;-73
2022/02/10 16:18:46;;;;;;;23.60;12.77;;;10.20;92.30;;;;;;5023466;28;20039;-72
2022/02/10 16:21:14;;;;;;;26.17;13.63;;;10.30;92.20;;;;;;5025677;28;20032;-72
2022/02/10 16:23:40;;;;;;;24.35;13.95;;;10.20;92.30;;;;;;5025687;28;20491;-72
2022/02/10 16:28:38;;;;;;;26.00;13.35;;;9.90;92.60;;;;;;5023764;28;20041;-72
2022/02/10 16:31:03;;;;;;;27.90;13.38;;;9.80;92.60;;;;;;5018052;28;20120;-72
2022/02/10 16:33:31;;;;;;;29.30;13.38;;;9.60;92.70;;;;;;5018992;28;20082;-72
2022/02/10 16:35:59;;;;;;;27.95;14.30;;;9.70;93.00;;;;;;5021932;28;20029;-72
2022/02/10 16:38:26;;;;;;;24.85;13.73;;;9.60;92.90;;;;;;5023115;28;20018;-72
2022/02/10 16:40:52;;;;;;;24.92;14.45;;;9.60;92.90;;;;;;5018871;28;20444;-72
2022/02/10 16:43:17;;;;;;;26.00;13.57;;;9.50;93.00;;;;;;5020758;28;20069;-72
2022/02/10 16:45:43;;;;;;;22.65;12.50;;;9.20;93.30;;;;;;5018664;28;20025;-73
2022/02/10 16:48:10;;;;;;;20.92;12.18;;;9.10;93.40;;;;;;5021767;28;20033;-72
2022/02/10 16:50:37;;;;;;;24.10;12.50;;;9.00;93.10;;;;;;5020615;28;20159;-72
2022/02/10 16:53:08;;;;;;;25.27;14.05;;;8.70;93.50;;;;;;5020475;28;20066;-72
2022/02/10 17:27:31;;;;;;;92.22;49.25;;;8.30;92.40;;;;;;5019162;28;20095;-75
2022/02/10 17:32:57;;;;;;;39.03;23.27;;;8.50;92.90;;;;;;5023776;28;20033;-75
2022/02/10 17:35:19;;;;;;;30.15;15.38;;;8.20;92.20;;;;;;5023202;28;20071;-75
2022/02/10 17:46:12;;;;;;;40.47;18.83;;;7.80;92.30;;;;;;5019632;28;20534;-78
2022/02/10 17:53:49;;;;;;;20.05;13.30;;;8.00;92.70;;;;;;5019525;28;20038;-75
2022/02/10 17:56:15;;;;;;;24.23;13.27;;;8.10;92.00;;;;;;5022659;28;20033;-75
2022/02/10 17:58:40;;;;;;;24.48;13.75;;;7.90;92.20;;;;;;5022337;28;20618;-74
2022/02/10 18:01:07;;;;;;;28.08;15.32;;;7.90;92.30;;;;;;5027419;28;20033;-74
2022/02/10 18:03:33;;;;;;;25.25;14.00;;;7.80;92.30;;;;;;5023521;28;20079;-74
2022/02/10 18:08:28;;;;;;;24.20;13.60;;;7.80;92.60;;;;;;5018407;28;20033;-77
2022/02/10 18:11:34;;;;;;;24.42;14.60;;;7.70;92.40;;;;;;5022201;28;20037;-74
2022/02/10 18:16:12;;;;;;;29.63;14.43;;;7.70;92.60;;;;;;5027260;28;20033;-74
2022/02/10 18:18:43;;;;;;;24.70;15.80;;;7.80;92.70;;;;;;5019102;28;20041;-75
2022/02/10 18:22:08;;;;;;;29.02;14.48;;;7.70;92.50;;;;;;5026678;28;20091;-75
2022/02/10 19:09:47;;;;;;;33.08;19.63;;;7.10;92.70;;;;;;5027652;28;20476;-75
2022/02/10 19:12:22;;;;;;;32.50;18.83;;;7.10;92.70;;;;;;5026989;28;20030;-75
2022/02/10 19:14:57;;;;;;;32.22;18.30;;;7.00;92.60;;;;;;5022089;28;20400;-75
2022/02/10 19:17:25;;;;;;;39.83;20.90;;;7.10;92.50;;;;;;5026073;28;20045;-75
2022/02/10 19:19:51;;;;;;;37.30;21.42;;;7.10;92.60;;;;;;5030409;28;20379;-75
2022/02/10 19:22:21;;;;;;;33.42;18.27;;;7.00;92.70;;;;;;5028764;28;20452;-74
2022/02/10 19:24:47;;;;;;;35.33;18.23;;;7.00;92.70;;;;;;5025346;28;20069;-75
2022/02/10 19:27:16;;;;;;;32.78;19.98;;;7.00;92.70;;;;;;5028704;28;20071;-74
2022/02/10 19:29:43;;;;;;;33.75;19.38;;;7.00;92.80;;;;;;5028223;28;20064;-75
2022/02/10 19:32:13;;;;;;;31.30;20.00;;;6.90;92.70;;;;;;5029998;28;20387;-75
2022/02/10 19:34:39;;;;;;;34.70;20.08;;;6.90;92.60;;;;;;5028878;28;20509;-75
2022/02/10 19:37:05;;;;;;;33.03;19.27;;;6.90;92.60;;;;;;5028079;28;20046;-75
2022/02/10 19:39:30;;;;;;;33.28;20.13;;;6.80;92.70;;;;;;5026352;28;20056;-76
2022/02/10 19:41:56;;;;;;;33.25;19.20;;;6.80;93.00;;;;;;5023268;28;20034;-75
2022/02/10 19:44:22;;;;;;;33.92;21.20;;;6.70;92.80;;;;;;5023591;28;20029;-75
2022/02/10 19:46:48;;;;;;;30.90;18.23;;;6.70;92.70;;;;;;5027549;28;20112;-74
2022/02/10 19:49:20;;;;;;;35.47;21.00;;;6.70;92.90;;;;;;5029762;28;20069;-75
2022/02/10 19:51:47;;;;;;;37.38;19.58;;;6.60;93.00;;;;;;5027655;28;20350;-75
2022/02/10 19:54:18;;;;;;;35.83;18.52;;;6.60;93.00;;;;;;5027051;28;20022;-75
2022/02/10 19:56:43;;;;;;;34.50;19.85;;;6.60;93.00;;;;;;5026795;28;20067;-75
2022/02/10 19:59:15;;;;;;;34.92;20.85;;;6.50;93.00;;;;;;5021316;28;20555;-75
2022/02/10 20:01:41;;;;;;;39.55;20.55;;;6.60;93.00;;;;;;5021628;28;20041;-74
2022/02/10 20:04:09;;;;;;;35.50;20.55;;;6.60;92.90;;;;;;5027505;28;20029;-74
2022/02/10 20:06:35;;;;;;;35.00;19.85;;;6.60;92.90;;;;;;5025094;28;20037;-74
2022/02/10 20:09:01;;;;;;;33.45;20.23;;;6.60;92.90;;;;;;5018913;28;20033;-74
2022/02/10 20:11:26;;;;;;;32.80;19.95;;;6.60;92.90;;;;;;5026043;28;20086;-74
2022/02/10 20:13:52;;;;;;;33.58;19.67;;;6.60;93.10;;;;;;5025186;28;20067;-74
2022/02/10 20:16:18;;;;;;;36.20;21.00;;;6.60;93.20;;;;;;5027702;28;20029;-74
2022/02/10 20:18:48;;;;;;;35.50;19.63;;;6.60;93.20;;;;;;5025791;28;20152;-74
2022/02/10 20:21:17;;;;;;;31.15;17.75;;;6.60;93.30;;;;;;5026646;28;20275;-75
2022/02/10 20:23:42;;;;;;;35.67;19.70;;;6.70;93.20;;;;;;5026373;28;20053;-75
2022/02/10 20:26:10;;;;;;;36.90;19.50;;;6.60;93.00;;;;;;5025384;28;20026;-74
2022/02/10 20:28:36;;;;;;;35.20;21.98;;;6.70;92.90;;;;;;5027655;28;20026;-75
2022/02/10 20:31:03;;;;;;;37.95;21.73;;;6.70;92.80;;;;;;5028942;28;20095;-74
2022/02/10 20:33:30;;;;;;;35.13;21.00;;;6.60;92.90;;;;;;5029140;28;20040;-73
2022/02/10 20:35:58;;;;;;;37.08;20.42;;;6.50;93.00;;;;;;5028585;28;20032;-74
2022/02/10 20:38:25;;;;;;;35.08;20.15;;;6.50;93.10;;;;;;5024312;28;20087;-73
2022/02/10 20:40:59;;;;;;;33.67;20.23;;;6.90;93.30;;;;;;5016492;28;20083;-72
2022/02/10 20:43:25;;;;;;;37.58;19.77;;;6.50;93.20;;;;;;5022826;28;20096;-73
2022/02/10 20:45:58;;;;;;;33.30;20.17;;;6.50;93.20;;;;;;5034259;28;20039;-73
2022/02/10 20:48:26;;;;;;;45.45;21.60;;;6.50;93.10;;;;;;5020359;28;20513;-73
2022/02/10 20:50:56;;;;;;;35.10;21.95;;;6.40;93.10;;;;;;5022110;28;20026;-72
2022/02/10 20:53:24;;;;;;;32.65;20.67;;;6.30;93.10;;;;;;5022784;28;20045;-73
2022/02/10 20:55:52;;;;;;;35.33;21.35;;;6.30;93.10;;;;;;5019232;28;20075;-74
2022/02/10 20:58:20;;;;;;;31.80;20.50;;;6.20;93.20;;;;;;5023496;28;20149;-74
2022/02/10 21:00:46;;;;;;;42.13;21.10;;;6.20;93.30;;;;;;5023083;28;20531;-75
2022/02/10 21:03:14;;;;;;;39.17;22.38;;;6.20;93.40;;;;;;5019385;28;20180;-72
2022/02/10 21:05:42;;;;;;;35.67;20.65;;;6.10;93.40;;;;;;5014553;28;20026;-73
2022/02/10 21:10:36;;;;;;;38.58;22.77;;;6.10;93.50;;;;;;5019392;28;20668;-75
2022/02/10 21:13:02;;;;;;;41.42;22.80;;;6.00;93.50;;;;;;5024559;28;20504;-73
2022/02/10 21:15:35;;;;;;;34.83;21.60;;;6.10;93.40;;;;;;5023891;28;20037;-73
2022/02/10 21:18:03;;;;;;;38.13;21.83;;;6.20;93.40;;;;;;5022882;28;20116;-73
2022/02/10 21:20:32;;;;;;;39.95;23.48;;;6.20;93.40;;;;;;5023937;28;20037;-74
2022/02/10 21:23:06;;;;;;;38.45;22.77;;;6.20;93.30;;;;;;5016984;28;20440;-73
2022/02/10 21:25:36;;;;;;;38.45;22.88;;;6.20;93.30;;;;;;5023466;28;20083;-74
2022/02/10 21:28:09;;;;;;;36.85;21.88;;;6.30;93.30;;;;;;5017892;28;20029;-73
2022/02/10 21:30:35;;;;;;;43.42;22.02;;;6.30;93.30;;;;;;5024954;28;20038;-74
2022/02/10 21:33:03;;;;;;;37.22;21.65;;;6.30;93.30;;;;;;5022144;28;20028;-73
2022/02/10 21:35:55;;;;;;;39.40;22.02;;;6.30;93.30;;;;;;5023511;28;20554;-73
2022/02/10 21:38:21;;;;;;;34.58;21.00;;;6.20;93.40;;;;;;5022483;28;20500;-73
2022/02/10 21:41:19;;;;;;;38.58;21.70;;;6.30;93.40;;;;;;5021445;28;20048;-74
2022/02/10 21:54:57;;;;;;;37.67;22.93;;;6.40;93.40;;;;;;5022792;28;20271;-74
2022/02/10 22:00:00;;;;;;;38.78;22.27;;;6.50;93.10;;;;;;5018545;28;20026;-74
2022/02/10 22:23:36;;;;;;;41.03;25.55;;;6.30;92.90;;;;;;5010762;28;20503;-73
2022/02/10 22:26:06;;;;;;;41.55;24.88;;;6.30;92.90;;;;;;5031274;28;20121;-74
2022/02/10 22:28:50;;;;;;;42.45;23.60;;;6.30;93.00;;;;;;5032581;28;20437;-73
2022/02/10 22:31:30;;;;;;;43.05;26.25;;;6.30;92.90;;;;;;5032863;28;20026;-74
2022/02/10 22:34:19;;;;;;;39.90;25.60;;;6.30;93.00;;;;;;5027767;28;20045;-74
2022/02/10 22:36:47;;;;;;;43.40;25.63;;;6.30;92.90;;;;;;5033176;28;20076;-73
2022/02/10 22:39:14;;;;;;;40.42;24.75;;;6.30;93.00;;;;;;5032467;28;20040;-74
2022/02/10 22:41:40;;;;;;;43.58;25.85;;;6.40;92.90;;;;;;5032253;28;20040;-73
2022/02/10 22:44:06;;;;;;;38.40;23.83;;;6.40;92.90;;;;;;5033159;28;20128;-74
2022/02/10 22:46:32;;;;;;;38.58;24.33;;;6.40;92.90;;;;;;5029737;28;20192;-74
2022/02/10 22:49:00;;;;;;;43.45;25.17;;;6.30;92.90;;;;;;5030106;28;20042;-74
2022/02/10 22:51:29;;;;;;;44.70;26.40;;;6.40;92.90;;;;;;5030572;28;20365;-73
2022/02/10 22:53:55;;;;;;;41.58;26.25;;;6.40;92.80;;;;;;5030065;28;20033;-73
2022/02/10 22:56:28;;;;;;;43.20;26.13;;;6.50;92.70;;;;;;5031827;28;20036;-74
2022/02/10 22:58:57;;;;;;;41.80;25.07;;;6.50;92.70;;;;;;5030037;28;20514;-74
2022/02/10 23:01:23;;;;;;;40.15;24.67;;;6.40;92.80;;;;;;5031282;28;20132;-74
2022/02/10 23:03:48;;;;;;;39.65;25.20;;;6.40;92.70;;;;;;5032341;28;20041;-74
2022/02/10 23:06:15;;;;;;;39.55;24.48;;;6.40;92.70;;;;;;5032191;28;20082;-72
2022/02/10 23:08:41;;;;;;;43.42;26.58;;;6.50;92.80;;;;;;5032665;28;20087;-73
2022/02/10 23:11:10;;;;;;;43.10;26.00;;;6.50;92.70;;;;;;5031195;28;20064;-73
2022/02/10 23:13:36;;;;;;;38.25;25.33;;;6.50;92.70;;;;;;5025412;28;20438;-73
2022/02/10 23:16:05;;;;;;;46.28;27.15;;;6.50;92.70;;;;;;5026479;28;20034;-74
2022/02/10 23:18:34;;;;;;;46.47;23.95;;;6.60;92.60;;;;;;5029290;28;20038;-73
2022/02/10 23:21:06;;;;;;;38.30;23.77;;;6.70;92.70;;;;;;5028095;28;20036;-73
2022/02/10 23:23:34;;;;;;;41.35;24.60;;;6.70;93.10;;;;;;5026743;28;20098;-73
2022/02/10 23:26:00;;;;;;;41.80;25.98;;;6.70;93.10;;;;;;5027820;28;20037;-73
2022/02/10 23:28:29;;;;;;;44.90;25.10;;;6.80;92.60;;;;;;5030075;28;20395;-73
2022/02/10 23:30:57;;;;;;;40.25;25.45;;;6.80;92.80;;;;;;5027281;28;20040;-73
2022/02/10 23:38:39;;;;;;;43.13;25.52;;;6.60;93.00;;;;;;5023952;28;20098;-73
2022/02/10 23:43:36;;;;;;;39.67;24.73;;;6.50;93.00;;;;;;5028680;28;20483;-74
2022/02/10 23:46:02;;;;;;;47.83;27.92;;;6.50;93.10;;;;;;5028295;28;20064;-74
2022/02/10 23:48:29;;;;;;;45.63;27.00;;;6.50;93.10;;;;;;5029413;28;20507;-74
2022/02/10 23:50:55;;;;;;;41.83;25.17;;;6.50;93.10;;;;;;5027972;28;20075;-74
2022/02/10 23:53:21;;;;;;;43.58;26.15;;;6.50;93.10;;;;;;5028679;28;20033;-74
2022/02/10 23:55:48;;;;;;;41.85;24.27;;;6.50;93.10;;;;;;5028011;28;20033;-74
2022/02/10 23:58:41;;;;;;;40.85;25.52;;;6.50;93.20;;;;;;5026925;28;20543;-74
